sensor_id;sensor_type;location;lat;lon;timestamp;temperature;humidity
23347;DHT22;36852;45.466;11.066;2022-12-29T00:01:30;11.10;99.90
23347;DHT22;36852;45.466;11.066;2022-12-29T00:03:58;11.10;99.90
23347;DHT22;36852;45.466;11.066;2022-12-29T00:06:26;11.10;99.90
23347;DHT22;36852;45.466;11.066;2022-12-29T00:08:54;11.10;99.90
23347;DHT22;36852;45.466;11.066;2022-12-29T00:11:26;11.10;99.90
23347;DHT22;36852;45.466;11.066;2022-12-29T00:13:54;11.10;99.90
23347;DHT22;36852;45.466;11.066;2022-12-29T00:16:43;11.10;99.90
23347;DHT22;36852;45.466;11.066;2022-12-29T00:19:12;11.10;99.90
23347;DHT22;36852;45.466;11.066;2022-12-29T00:21:59;11.10;99.90
23347;DHT22;36852;45.466;11.066;2022-12-29T00:24:45;11.00;99.90
23347;DHT22;36852;45.466;11.066;2022-12-29T00:27:33;11.00;99.90
23347;DHT22;36852;45.466;11.066;2022-12-29T00:30:22;11.00;99.90
23347;DHT22;36852;45.466;11.066;2022-12-29T00:33:17;10.90;99.90
23347;DHT22;36852;45.466;11.066;2022-12-29T00:36:25;10.90;99.90
23347;DHT22;36852;45.466;11.066;2022-12-29T00:39:03;10.90;99.90
23347;DHT22;36852;45.466;11.066;2022-12-29T00:41:50;10.90;99.90
23347;DHT22;36852;45.466;11.066;2022-12-29T00:44:37;10.90;99.90
23347;DHT22;36852;45.466;11.066;2022-12-29T00:47:05;11.00;99.90
23347;DHT22;36852;45.466;11.066;2022-12-29T00:49:33;10.90;99.90
23347;DHT22;36852;45.466;11.066;2022-12-29T00:52:04;11.00;99.90
23347;DHT22;36852;45.466;11.066;2022-12-29T00:54:37;11.00;99.90
23347;DHT22;36852;45.466;11.066;2022-12-29T00:57:06;11.00;99.90
23347;DHT22;36852;45.466;11.066;2022-12-29T00:59:36;10.90;99.90
23347;DHT22;36852;45.466;11.066;2022-12-29T01:02:05;10.90;99.90
23347;DHT22;36852;45.466;11.066;2022-12-29T01:04:33;10.90;99.90
23347;DHT22;36852;45.466;11.066;2022-12-29T01:07:01;10.90;99.90
23347;DHT22;36852;45.466;11.066;2022-12-29T01:09:28;10.90;99.90
23347;DHT22;36852;45.466;11.066;2022-12-29T01:12:14;10.90;99.90
23347;DHT22;36852;45.466;11.066;2022-12-29T01:14:44;10.90;99.90
23347;DHT22;36852;45.466;11.066;2022-12-29T01:17:12;10.90;99.90
23347;DHT22;36852;45.466;11.066;2022-12-29T01:19:41;10.90;99.90
23347;DHT22;36852;45.466;11.066;2022-12-29T01:22:09;11.00;99.90
23347;DHT22;36852;45.466;11.066;2022-12-29T01:24:37;11.00;99.90
23347;DHT22;36852;45.466;11.066;2022-12-29T01:27:04;10.90;99.90
23347;DHT22;36852;45.466;11.066;2022-12-29T01:29:33;10.90;99.90
23347;DHT22;36852;45.466;11.066;2022-12-29T01:32:01;10.90;99.90
23347;DHT22;36852;45.466;11.066;2022-12-29T01:34:29;10.90;99.90
23347;DHT22;36852;45.466;11.066;2022-12-29T01:36:57;10.90;99.90
23347;DHT22;36852;45.466;11.066;2022-12-29T01:39:25;10.90;99.90
23347;DHT22;36852;45.466;11.066;2022-12-29T01:41:53;10.90;99.90
23347;DHT22;36852;45.466;11.066;2022-12-29T01:44:51;10.90;99.90
23347;DHT22;36852;45.466;11.066;2022-12-29T01:47:38;10.90;99.90
23347;DHT22;36852;45.466;11.066;2022-12-29T01:53:11;10.80;99.90
23347;DHT22;36852;45.466;11.066;2022-12-29T01:55:46;10.80;99.90
23347;DHT22;36852;45.466;11.066;2022-12-29T01:58:14;10.80;99.90
23347;DHT22;36852;45.466;11.066;2022-12-29T02:00:45;10.80;99.90
23347;DHT22;36852;45.466;11.066;2022-12-29T02:03:14;10.80;99.90
23347;DHT22;36852;45.466;11.066;2022-12-29T02:05:56;10.80;99.90
23347;DHT22;36852;45.466;11.066;2022-12-29T02:08:26;10.80;99.90
23347;DHT22;36852;45.466;11.066;2022-12-29T02:10:56;10.80;99.90
23347;DHT22;36852;45.466;11.066;2022-12-29T02:13:25;10.80;99.90
23347;DHT22;36852;45.466;11.066;2022-12-29T02:16:23;10.80;99.90
23347;DHT22;36852;45.466;11.066;2022-12-29T02:25:05;10.80;99.90
23347;DHT22;36852;45.466;11.066;2022-12-29T02:27:53;10.80;99.90
23347;DHT22;36852;45.466;11.066;2022-12-29T02:30:36;10.80;99.90
23347;DHT22;36852;45.466;11.066;2022-12-29T02:35:52;10.80;99.90
23347;DHT22;36852;45.466;11.066;2022-12-29T02:38:34;10.70;99.90
23347;DHT22;36852;45.466;11.066;2022-12-29T02:52:19;10.70;99.90
23347;DHT22;36852;45.466;11.066;2022-12-29T02:54:49;10.70;99.90
23347;DHT22;36852;45.466;11.066;2022-12-29T02:59:57;10.70;99.90
23347;DHT22;36852;45.466;11.066;2022-12-29T03:05:41;10.80;99.90
23347;DHT22;36852;45.466;11.066;2022-12-29T03:08:00;10.80;99.90
23347;DHT22;36852;45.466;11.066;2022-12-29T03:13:28;10.80;99.90
23347;DHT22;36852;45.466;11.066;2022-12-29T03:24:44;10.90;99.90
23347;DHT22;36852;45.466;11.066;2022-12-29T03:27:17;10.90;99.90
23347;DHT22;36852;45.466;11.066;2022-12-29T03:29:49;10.80;99.90
23347;DHT22;36852;45.466;11.066;2022-12-29T03:32:20;10.80;99.90
23347;DHT22;36852;45.466;11.066;2022-12-29T03:34:50;10.70;99.90
23347;DHT22;36852;45.466;11.066;2022-12-29T03:37:23;10.60;99.90
23347;DHT22;36852;45.466;11.066;2022-12-29T03:39:52;10.60;99.90
23347;DHT22;36852;45.466;11.066;2022-12-29T03:42:23;10.60;99.90
23347;DHT22;36852;45.466;11.066;2022-12-29T03:44:54;10.60;99.90
23347;DHT22;36852;45.466;11.066;2022-12-29T03:47:30;10.70;99.90
23347;DHT22;36852;45.466;11.066;2022-12-29T03:49:58;10.70;99.90
23347;DHT22;36852;45.466;11.066;2022-12-29T03:52:26;10.70;99.90
23347;DHT22;36852;45.466;11.066;2022-12-29T03:54:54;10.70;99.90
23347;DHT22;36852;45.466;11.066;2022-12-29T03:57:22;10.60;99.90
23347;DHT22;36852;45.466;11.066;2022-12-29T03:59:52;10.60;99.90
23347;DHT22;36852;45.466;11.066;2022-12-29T04:02:20;10.60;99.90
23347;DHT22;36852;45.466;11.066;2022-12-29T04:04:48;10.70;99.90
23347;DHT22;36852;45.466;11.066;2022-12-29T04:07:16;10.70;99.90
23347;DHT22;36852;45.466;11.066;2022-12-29T04:09:44;10.70;99.90
23347;DHT22;36852;45.466;11.066;2022-12-29T04:12:13;10.70;99.90
23347;DHT22;36852;45.466;11.066;2022-12-29T04:14:42;10.70;99.90
23347;DHT22;36852;45.466;11.066;2022-12-29T04:17:10;10.70;99.90
23347;DHT22;36852;45.466;11.066;2022-12-29T04:19:40;10.70;99.90
23347;DHT22;36852;45.466;11.066;2022-12-29T04:22:07;10.70;99.90
23347;DHT22;36852;45.466;11.066;2022-12-29T04:24:39;10.80;99.90
23347;DHT22;36852;45.466;11.066;2022-12-29T04:27:09;10.80;99.90
23347;DHT22;36852;45.466;11.066;2022-12-29T04:29:39;10.70;99.90
23347;DHT22;36852;45.466;11.066;2022-12-29T04:32:09;10.80;99.90
23347;DHT22;36852;45.466;11.066;2022-12-29T04:34:38;10.80;99.90
23347;DHT22;36852;45.466;11.066;2022-12-29T04:37:06;10.80;99.90
23347;DHT22;36852;45.466;11.066;2022-12-29T04:39:34;10.70;99.90
23347;DHT22;36852;45.466;11.066;2022-12-29T04:42:03;10.70;99.90
23347;DHT22;36852;45.466;11.066;2022-12-29T04:44:32;10.70;99.90
23347;DHT22;36852;45.466;11.066;2022-12-29T04:47:03;10.70;99.90
23347;DHT22;36852;45.466;11.066;2022-12-29T04:49:35;10.70;99.90
23347;DHT22;36852;45.466;11.066;2022-12-29T04:52:21;10.70;99.90
23347;DHT22;36852;45.466;11.066;2022-12-29T04:54:49;10.70;99.90
23347;DHT22;36852;45.466;11.066;2022-12-29T04:57:18;10.70;99.90
23347;DHT22;36852;45.466;11.066;2022-12-29T04:59:48;10.70;99.90
23347;DHT22;36852;45.466;11.066;2022-12-29T05:02:17;10.70;99.90
23347;DHT22;36852;45.466;11.066;2022-12-29T05:04:49;10.70;99.90
23347;DHT22;36852;45.466;11.066;2022-12-29T05:07:18;10.70;99.90
23347;DHT22;36852;45.466;11.066;2022-12-29T05:09:48;10.70;99.90
23347;DHT22;36852;45.466;11.066;2022-12-29T05:12:16;10.70;99.90
23347;DHT22;36852;45.466;11.066;2022-12-29T05:14:46;10.70;99.90
23347;DHT22;36852;45.466;11.066;2022-12-29T05:17:14;10.70;99.90
23347;DHT22;36852;45.466;11.066;2022-12-29T05:19:43;10.70;99.90
23347;DHT22;36852;45.466;11.066;2022-12-29T05:22:11;10.70;99.90
23347;DHT22;36852;45.466;11.066;2022-12-29T05:24:41;10.70;99.90
23347;DHT22;36852;45.466;11.066;2022-12-29T05:27:09;10.70;99.90
23347;DHT22;36852;45.466;11.066;2022-12-29T05:29:39;10.60;99.90
23347;DHT22;36852;45.466;11.066;2022-12-29T05:32:07;10.70;99.90
23347;DHT22;36852;45.466;11.066;2022-12-29T05:34:35;10.60;99.90
23347;DHT22;36852;45.466;11.066;2022-12-29T05:37:04;10.60;99.90
23347;DHT22;36852;45.466;11.066;2022-12-29T05:39:32;10.60;99.90
23347;DHT22;36852;45.466;11.066;2022-12-29T05:42:01;10.60;99.90
23347;DHT22;36852;45.466;11.066;2022-12-29T05:44:37;10.60;99.90
23347;DHT22;36852;45.466;11.066;2022-12-29T05:47:13;10.60;99.90
23347;DHT22;36852;45.466;11.066;2022-12-29T05:49:48;10.60;99.90
23347;DHT22;36852;45.466;11.066;2022-12-29T05:52:34;10.60;99.90
23347;DHT22;36852;45.466;11.066;2022-12-29T05:55:02;10.60;99.90
23347;DHT22;36852;45.466;11.066;2022-12-29T05:57:31;10.60;99.90
23347;DHT22;36852;45.466;11.066;2022-12-29T06:00:05;10.60;99.90
23347;DHT22;36852;45.466;11.066;2022-12-29T06:02:36;10.70;99.90
23347;DHT22;36852;45.466;11.066;2022-12-29T06:05:04;10.70;99.90
23347;DHT22;36852;45.466;11.066;2022-12-29T06:07:35;10.70;99.90
23347;DHT22;36852;45.466;11.066;2022-12-29T06:12:49;10.70;99.90
23347;DHT22;36852;45.466;11.066;2022-12-29T06:15:17;10.70;99.90
23347;DHT22;36852;45.466;11.066;2022-12-29T06:17:46;10.70;99.90
23347;DHT22;36852;45.466;11.066;2022-12-29T06:20:18;10.70;99.90
23347;DHT22;36852;45.466;11.066;2022-12-29T06:22:47;10.70;99.90
23347;DHT22;36852;45.466;11.066;2022-12-29T06:25:15;10.70;99.90
23347;DHT22;36852;45.466;11.066;2022-12-29T06:27:43;10.60;99.90
23347;DHT22;36852;45.466;11.066;2022-12-29T06:30:12;10.60;99.90
23347;DHT22;36852;45.466;11.066;2022-12-29T06:32:40;10.70;99.90
23347;DHT22;36852;45.466;11.066;2022-12-29T06:35:10;10.70;99.90
23347;DHT22;36852;45.466;11.066;2022-12-29T06:37:40;10.70;99.90
23347;DHT22;36852;45.466;11.066;2022-12-29T06:40:08;10.70;99.90
23347;DHT22;36852;45.466;11.066;2022-12-29T06:42:44;10.70;99.90
23347;DHT22;36852;45.466;11.066;2022-12-29T06:45:13;10.70;99.90
23347;DHT22;36852;45.466;11.066;2022-12-29T06:47:41;10.70;99.90
23347;DHT22;36852;45.466;11.066;2022-12-29T06:50:09;10.60;99.90
23347;DHT22;36852;45.466;11.066;2022-12-29T06:52:37;10.60;99.90
23347;DHT22;36852;45.466;11.066;2022-12-29T06:55:08;10.50;99.90
23347;DHT22;36852;45.466;11.066;2022-12-29T06:57:36;10.60;99.90
23347;DHT22;36852;45.466;11.066;2022-12-29T07:00:05;10.50;99.90
23347;DHT22;36852;45.466;11.066;2022-12-29T07:02:33;10.60;99.90
23347;DHT22;36852;45.466;11.066;2022-12-29T07:05:02;10.50;99.90
23347;DHT22;36852;45.466;11.066;2022-12-29T07:07:30;10.60;99.90
23347;DHT22;36852;45.466;11.066;2022-12-29T07:09:59;10.60;99.90
23347;DHT22;36852;45.466;11.066;2022-12-29T07:12:27;10.50;99.90
23347;DHT22;36852;45.466;11.066;2022-12-29T07:14:55;10.50;99.90
23347;DHT22;36852;45.466;11.066;2022-12-29T07:17:23;10.60;99.90
23347;DHT22;36852;45.466;11.066;2022-12-29T07:19:51;10.60;99.90
23347;DHT22;36852;45.466;11.066;2022-12-29T07:22:20;10.60;99.90
23347;DHT22;36852;45.466;11.066;2022-12-29T07:24:48;10.60;99.90
23347;DHT22;36852;45.466;11.066;2022-12-29T07:27:16;10.60;99.90
23347;DHT22;36852;45.466;11.066;2022-12-29T07:29:43;10.60;99.90
23347;DHT22;36852;45.466;11.066;2022-12-29T07:32:14;10.60;99.90
23347;DHT22;36852;45.466;11.066;2022-12-29T07:34:44;10.60;99.90
23347;DHT22;36852;45.466;11.066;2022-12-29T07:37:16;10.60;99.90
23347;DHT22;36852;45.466;11.066;2022-12-29T07:39:45;10.60;99.90
23347;DHT22;36852;45.466;11.066;2022-12-29T07:42:12;10.60;99.90
23347;DHT22;36852;45.466;11.066;2022-12-29T07:44:43;10.60;99.90
23347;DHT22;36852;45.466;11.066;2022-12-29T07:47:28;10.60;99.90
23347;DHT22;36852;45.466;11.066;2022-12-29T07:49:56;10.50;99.90
23347;DHT22;36852;45.466;11.066;2022-12-29T07:52:24;10.50;99.90
23347;DHT22;36852;45.466;11.066;2022-12-29T07:54:53;10.60;99.90
23347;DHT22;36852;45.466;11.066;2022-12-29T07:57:22;10.60;99.90
23347;DHT22;36852;45.466;11.066;2022-12-29T07:59:57;10.60;99.90
23347;DHT22;36852;45.466;11.066;2022-12-29T08:02:26;10.50;99.90
23347;DHT22;36852;45.466;11.066;2022-12-29T08:04:57;10.60;99.90
23347;DHT22;36852;45.466;11.066;2022-12-29T08:07:24;10.60;99.90
23347;DHT22;36852;45.466;11.066;2022-12-29T08:09:52;10.60;99.90
23347;DHT22;36852;45.466;11.066;2022-12-29T08:12:20;10.70;99.90
23347;DHT22;36852;45.466;11.066;2022-12-29T08:14:49;10.70;99.90
23347;DHT22;36852;45.466;11.066;2022-12-29T08:17:17;10.70;99.90
23347;DHT22;36852;45.466;11.066;2022-12-29T08:19:45;10.80;99.90
23347;DHT22;36852;45.466;11.066;2022-12-29T08:22:14;10.80;99.90
23347;DHT22;36852;45.466;11.066;2022-12-29T08:24:42;10.80;99.90
23347;DHT22;36852;45.466;11.066;2022-12-29T08:27:31;10.80;99.90
23347;DHT22;36852;45.466;11.066;2022-12-29T08:29:59;10.90;99.90
23347;DHT22;36852;45.466;11.066;2022-12-29T08:32:28;10.90;99.90
23347;DHT22;36852;45.466;11.066;2022-12-29T08:34:56;10.90;99.90
23347;DHT22;36852;45.466;11.066;2022-12-29T08:37:24;10.90;99.90
23347;DHT22;36852;45.466;11.066;2022-12-29T08:39:56;10.90;99.90
23347;DHT22;36852;45.466;11.066;2022-12-29T08:42:24;10.90;99.90
23347;DHT22;36852;45.466;11.066;2022-12-29T08:44:54;10.90;99.90
23347;DHT22;36852;45.466;11.066;2022-12-29T08:47:22;10.90;99.90
23347;DHT22;36852;45.466;11.066;2022-12-29T08:49:50;10.90;99.90
23347;DHT22;36852;45.466;11.066;2022-12-29T08:52:18;10.90;99.90
23347;DHT22;36852;45.466;11.066;2022-12-29T08:54:47;10.80;99.90
23347;DHT22;36852;45.466;11.066;2022-12-29T08:57:15;10.90;99.90
23347;DHT22;36852;45.466;11.066;2022-12-29T08:59:51;10.90;99.90
23347;DHT22;36852;45.466;11.066;2022-12-29T09:02:19;10.80;99.90
23347;DHT22;36852;45.466;11.066;2022-12-29T09:04:49;10.80;99.90
23347;DHT22;36852;45.466;11.066;2022-12-29T09:07:20;10.80;99.90
23347;DHT22;36852;45.466;11.066;2022-12-29T09:09:49;10.90;99.90
23347;DHT22;36852;45.466;11.066;2022-12-29T09:12:18;10.90;99.90
23347;DHT22;36852;45.466;11.066;2022-12-29T09:14:46;10.90;99.90
23347;DHT22;36852;45.466;11.066;2022-12-29T09:17:14;10.90;99.90
23347;DHT22;36852;45.466;11.066;2022-12-29T09:20:00;10.90;99.90
23347;DHT22;36852;45.466;11.066;2022-12-29T09:22:28;10.90;99.90
23347;DHT22;36852;45.466;11.066;2022-12-29T09:24:56;10.90;99.90
23347;DHT22;36852;45.466;11.066;2022-12-29T09:27:24;10.90;99.90
23347;DHT22;36852;45.466;11.066;2022-12-29T09:29:51;10.90;99.90
23347;DHT22;36852;45.466;11.066;2022-12-29T09:32:19;10.90;99.90
23347;DHT22;36852;45.466;11.066;2022-12-29T09:34:49;10.90;99.90
23347;DHT22;36852;45.466;11.066;2022-12-29T09:37:17;10.90;99.90
23347;DHT22;36852;45.466;11.066;2022-12-29T09:39:45;10.90;99.90
23347;DHT22;36852;45.466;11.066;2022-12-29T09:42:22;11.00;99.90
23347;DHT22;36852;45.466;11.066;2022-12-29T09:47:40;10.90;99.90
23347;DHT22;36852;45.466;11.066;2022-12-29T09:52:55;11.00;99.90
23347;DHT22;36852;45.466;11.066;2022-12-29T09:55:38;11.00;99.90
23347;DHT22;36852;45.466;11.066;2022-12-29T09:59:13;11.00;99.90
23347;DHT22;36852;45.466;11.066;2022-12-29T10:03:41;11.00;99.90
23347;DHT22;36852;45.466;11.066;2022-12-29T10:06:15;11.00;99.90
23347;DHT22;36852;45.466;11.066;2022-12-29T10:09:04;11.10;99.90
23347;DHT22;36852;45.466;11.066;2022-12-29T10:11:55;11.10;99.90
23347;DHT22;36852;45.466;11.066;2022-12-29T10:17:20;11.10;99.90
23347;DHT22;36852;45.466;11.066;2022-12-29T10:24:54;11.20;99.90
23347;DHT22;36852;45.466;11.066;2022-12-29T10:27:24;11.20;99.90
23347;DHT22;36852;45.466;11.066;2022-12-29T10:29:55;11.30;99.90
23347;DHT22;36852;45.466;11.066;2022-12-29T10:32:38;11.30;99.90
23347;DHT22;36852;45.466;11.066;2022-12-29T10:35:13;11.40;99.90
23347;DHT22;36852;45.466;11.066;2022-12-29T10:41:08;11.60;99.90
23347;DHT22;36852;45.466;11.066;2022-12-29T10:43:47;11.70;99.90
23347;DHT22;36852;45.466;11.066;2022-12-29T10:46:28;11.70;99.90
23347;DHT22;36852;45.466;11.066;2022-12-29T10:48:57;11.80;99.90
23347;DHT22;36852;45.466;11.066;2022-12-29T10:51:28;11.80;99.90
23347;DHT22;36852;45.466;11.066;2022-12-29T10:53:58;11.90;99.90
23347;DHT22;36852;45.466;11.066;2022-12-29T10:56:37;11.90;99.90
23347;DHT22;36852;45.466;11.066;2022-12-29T10:59:26;11.90;99.90
23347;DHT22;36852;45.466;11.066;2022-12-29T11:10:39;12.10;99.90
23347;DHT22;36852;45.466;11.066;2022-12-29T11:13:25;12.10;99.90
23347;DHT22;36852;45.466;11.066;2022-12-29T11:15:55;12.10;99.90
23347;DHT22;36852;45.466;11.066;2022-12-29T11:21:23;12.10;99.90
23347;DHT22;36852;45.466;11.066;2022-12-29T11:23:41;12.20;99.90
23347;DHT22;36852;45.466;11.066;2022-12-29T11:26:23;12.20;99.90
23347;DHT22;36852;45.466;11.066;2022-12-29T11:31:57;12.30;99.90
23347;DHT22;36852;45.466;11.066;2022-12-29T11:34:21;12.30;99.90
23347;DHT22;36852;45.466;11.066;2022-12-29T11:37:04;12.30;99.90
23347;DHT22;36852;45.466;11.066;2022-12-29T11:42:17;12.20;99.90
23347;DHT22;36852;45.466;11.066;2022-12-29T11:44:49;12.20;99.90
23347;DHT22;36852;45.466;11.066;2022-12-29T11:47:28;12.30;99.90
23347;DHT22;36852;45.466;11.066;2022-12-29T11:49:55;12.30;99.90
23347;DHT22;36852;45.466;11.066;2022-12-29T11:52:26;12.30;99.90
23347;DHT22;36852;45.466;11.066;2022-12-29T11:54:56;12.30;99.90
23347;DHT22;36852;45.466;11.066;2022-12-29T11:57:25;12.30;99.90
23347;DHT22;36852;45.466;11.066;2022-12-29T11:59:57;12.30;99.90
23347;DHT22;36852;45.466;11.066;2022-12-29T12:02:32;12.30;99.90
23347;DHT22;36852;45.466;11.066;2022-12-29T12:05:10;12.30;99.90
23347;DHT22;36852;45.466;11.066;2022-12-29T12:07:43;12.20;99.90
23347;DHT22;36852;45.466;11.066;2022-12-29T12:10:21;12.10;99.90
23347;DHT22;36852;45.466;11.066;2022-12-29T12:12:55;12.00;99.90
23347;DHT22;36852;45.466;11.066;2022-12-29T12:15:36;12.00;99.90
23347;DHT22;36852;45.466;11.066;2022-12-29T12:18:12;12.00;99.90
23347;DHT22;36852;45.466;11.066;2022-12-29T12:26:28;12.00;99.90
23347;DHT22;36852;45.466;11.066;2022-12-29T12:29:04;12.00;99.90
23347;DHT22;36852;45.466;11.066;2022-12-29T12:31:40;12.00;99.90
23347;DHT22;36852;45.466;11.066;2022-12-29T12:34:06;11.90;99.90
23347;DHT22;36852;45.466;11.066;2022-12-29T12:39:59;11.90;99.90
23347;DHT22;36852;45.466;11.066;2022-12-29T13:00:17;11.60;99.90
23347;DHT22;36852;45.466;11.066;2022-12-29T13:03:13;11.50;99.90
23347;DHT22;36852;45.466;11.066;2022-12-29T13:05:59;11.50;99.90
23347;DHT22;36852;45.466;11.066;2022-12-29T13:08:48;11.50;99.90
23347;DHT22;36852;45.466;11.066;2022-12-29T13:22:44;11.60;99.90
23347;DHT22;36852;45.466;11.066;2022-12-29T13:30:41;11.50;99.90
23347;DHT22;36852;45.466;11.066;2022-12-29T13:36:05;11.50;99.90
23347;DHT22;36852;45.466;11.066;2022-12-29T13:38:45;11.50;99.90
23347;DHT22;36852;45.466;11.066;2022-12-29T13:41:19;11.60;99.90
23347;DHT22;36852;45.466;11.066;2022-12-29T13:43:47;11.60;99.90
23347;DHT22;36852;45.466;11.066;2022-12-29T13:46:22;11.60;99.90
23347;DHT22;36852;45.466;11.066;2022-12-29T13:51:28;11.60;99.90
23347;DHT22;36852;45.466;11.066;2022-12-29T13:59:48;11.70;99.90
23347;DHT22;36852;45.466;11.066;2022-12-29T14:04:57;11.70;99.90
23347;DHT22;36852;45.466;11.066;2022-12-29T14:07:27;11.60;99.90
23347;DHT22;36852;45.466;11.066;2022-12-29T14:09:59;11.60;99.90
23347;DHT22;36852;45.466;11.066;2022-12-29T14:12:36;11.60;99.90
23347;DHT22;36852;45.466;11.066;2022-12-29T14:17:44;11.60;99.90
23347;DHT22;36852;45.466;11.066;2022-12-29T14:20:22;11.60;99.90
23347;DHT22;36852;45.466;11.066;2022-12-29T14:23:15;11.60;99.90
23347;DHT22;36852;45.466;11.066;2022-12-29T14:28:30;11.60;99.90
23347;DHT22;36852;45.466;11.066;2022-12-29T14:31:20;11.60;99.90
23347;DHT22;36852;45.466;11.066;2022-12-29T14:33:34;11.50;99.90
23347;DHT22;36852;45.466;11.066;2022-12-29T14:36:27;11.50;99.90
23347;DHT22;36852;45.466;11.066;2022-12-29T14:39:26;11.50;99.90
23347;DHT22;36852;45.466;11.066;2022-12-29T14:41:48;11.50;99.90
23347;DHT22;36852;45.466;11.066;2022-12-29T14:44:19;11.50;99.90
23347;DHT22;36852;45.466;11.066;2022-12-29T14:49:32;11.50;99.90
23347;DHT22;36852;45.466;11.066;2022-12-29T14:52:27;11.50;99.90
23347;DHT22;36852;45.466;11.066;2022-12-29T14:57:19;11.50;99.90
23347;DHT22;36852;45.466;11.066;2022-12-29T14:59:48;11.50;99.90
23347;DHT22;36852;45.466;11.066;2022-12-29T15:02:20;11.40;99.90
23347;DHT22;36852;45.466;11.066;2022-12-29T15:04:49;11.40;99.90
23347;DHT22;36852;45.466;11.066;2022-12-29T15:07:19;11.40;99.90
23347;DHT22;36852;45.466;11.066;2022-12-29T15:09:54;11.50;99.90
23347;DHT22;36852;45.466;11.066;2022-12-29T15:12:41;11.50;99.90
23347;DHT22;36852;45.466;11.066;2022-12-29T15:15:26;11.50;99.90
23347;DHT22;36852;45.466;11.066;2022-12-29T15:17:54;11.50;99.90
23347;DHT22;36852;45.466;11.066;2022-12-29T15:20:26;11.50;99.90
23347;DHT22;36852;45.466;11.066;2022-12-29T15:25:26;11.50;99.90
23347;DHT22;36852;45.466;11.066;2022-12-29T15:27:57;11.40;99.90
23347;DHT22;36852;45.466;11.066;2022-12-29T15:30:25;11.40;99.90
23347;DHT22;36852;45.466;11.066;2022-12-29T15:32:53;11.40;99.90
23347;DHT22;36852;45.466;11.066;2022-12-29T15:35:33;11.40;99.90
23347;DHT22;36852;45.466;11.066;2022-12-29T15:38:19;11.40;99.90
23347;DHT22;36852;45.466;11.066;2022-12-29T15:40:57;11.40;99.90
23347;DHT22;36852;45.466;11.066;2022-12-29T15:46:13;11.40;99.90
23347;DHT22;36852;45.466;11.066;2022-12-29T15:48:41;11.30;99.90
23347;DHT22;36852;45.466;11.066;2022-12-29T15:51:16;11.30;99.90
23347;DHT22;36852;45.466;11.066;2022-12-29T15:53:46;11.30;99.90
23347;DHT22;36852;45.466;11.066;2022-12-29T15:56:15;11.30;99.90
23347;DHT22;36852;45.466;11.066;2022-12-29T15:58:46;11.30;99.90
23347;DHT22;36852;45.466;11.066;2022-12-29T16:03:51;11.30;99.90
23347;DHT22;36852;45.466;11.066;2022-12-29T16:09:06;11.30;99.90
23347;DHT22;36852;45.466;11.066;2022-12-29T16:11:35;11.30;99.90
23347;DHT22;36852;45.466;11.066;2022-12-29T16:14:16;11.30;99.90
23347;DHT22;36852;45.466;11.066;2022-12-29T16:16:46;11.30;99.90
23347;DHT22;36852;45.466;11.066;2022-12-29T16:22:00;11.30;99.90
23347;DHT22;36852;45.466;11.066;2022-12-29T16:24:30;11.30;99.90
23347;DHT22;36852;45.466;11.066;2022-12-29T16:27:08;11.30;99.90
23347;DHT22;36852;45.466;11.066;2022-12-29T16:29:37;11.30;99.90
23347;DHT22;36852;45.466;11.066;2022-12-29T16:32:28;11.20;99.90
23347;DHT22;36852;45.466;11.066;2022-12-29T16:35:16;11.20;99.90
23347;DHT22;36852;45.466;11.066;2022-12-29T16:37:43;11.20;99.90
23347;DHT22;36852;45.466;11.066;2022-12-29T16:42:49;11.20;99.90
23347;DHT22;36852;45.466;11.066;2022-12-29T16:48:15;11.20;99.90
23347;DHT22;36852;45.466;11.066;2022-12-29T16:50:42;11.10;99.90
23347;DHT22;36852;45.466;11.066;2022-12-29T16:53:35;11.10;99.90
23347;DHT22;36852;45.466;11.066;2022-12-29T16:56:19;11.10;99.90
23347;DHT22;36852;45.466;11.066;2022-12-29T16:58:48;11.10;99.90
23347;DHT22;36852;45.466;11.066;2022-12-29T17:01:16;11.10;99.90
23347;DHT22;36852;45.466;11.066;2022-12-29T17:03:56;11.10;99.90
23347;DHT22;36852;45.466;11.066;2022-12-29T17:06:22;11.10;99.90
23347;DHT22;36852;45.466;11.066;2022-12-29T17:08:51;11.10;99.90
23347;DHT22;36852;45.466;11.066;2022-12-29T17:11:31;11.10;99.90
23347;DHT22;36852;45.466;11.066;2022-12-29T17:17:29;11.10;99.90
23347;DHT22;36852;45.466;11.066;2022-12-29T17:19:52;11.10;99.90
23347;DHT22;36852;45.466;11.066;2022-12-29T17:22:23;11.10;99.90
23347;DHT22;36852;45.466;11.066;2022-12-29T17:24:53;11.10;99.90
23347;DHT22;36852;45.466;11.066;2022-12-29T17:30:05;11.00;99.90
23347;DHT22;36852;45.466;11.066;2022-12-29T17:32:32;11.00;99.90
23347;DHT22;36852;45.466;11.066;2022-12-29T17:35:00;11.00;99.90
23347;DHT22;36852;45.466;11.066;2022-12-29T17:37:31;11.00;99.90
23347;DHT22;36852;45.466;11.066;2022-12-29T17:40:00;11.00;99.90
23347;DHT22;36852;45.466;11.066;2022-12-29T17:42:28;11.00;99.90
23347;DHT22;36852;45.466;11.066;2022-12-29T17:45:00;11.00;99.90
23347;DHT22;36852;45.466;11.066;2022-12-29T17:47:29;11.00;99.90
23347;DHT22;36852;45.466;11.066;2022-12-29T17:49:57;11.00;99.90
23347;DHT22;36852;45.466;11.066;2022-12-29T17:52:24;11.00;99.90
23347;DHT22;36852;45.466;11.066;2022-12-29T17:54:53;11.00;99.90
23347;DHT22;36852;45.466;11.066;2022-12-29T17:57:22;11.10;99.90
23347;DHT22;36852;45.466;11.066;2022-12-29T17:59:50;11.10;99.90
23347;DHT22;36852;45.466;11.066;2022-12-29T18:02:30;11.10;99.90
23347;DHT22;36852;45.466;11.066;2022-12-29T18:05:00;11.10;99.90
23347;DHT22;36852;45.466;11.066;2022-12-29T18:07:28;11.10;99.90
23347;DHT22;36852;45.466;11.066;2022-12-29T18:09:58;11.10;99.90
23347;DHT22;36852;45.466;11.066;2022-12-29T18:12:36;11.00;99.90
23347;DHT22;36852;45.466;11.066;2022-12-29T18:15:00;11.00;99.90
23347;DHT22;36852;45.466;11.066;2022-12-29T18:17:28;11.00;99.90
23347;DHT22;36852;45.466;11.066;2022-12-29T18:19:56;11.00;99.90
23347;DHT22;36852;45.466;11.066;2022-12-29T18:22:25;11.00;99.90
23347;DHT22;36852;45.466;11.066;2022-12-29T18:24:55;11.00;99.90
23347;DHT22;36852;45.466;11.066;2022-12-29T18:27:25;11.00;99.90
23347;DHT22;36852;45.466;11.066;2022-12-29T18:29:52;11.00;99.90
23347;DHT22;36852;45.466;11.066;2022-12-29T18:32:20;11.10;99.90
23347;DHT22;36852;45.466;11.066;2022-12-29T18:34:48;11.10;99.90
23347;DHT22;36852;45.466;11.066;2022-12-29T18:37:16;11.00;99.90
23347;DHT22;36852;45.466;11.066;2022-12-29T18:39:44;11.00;99.90